sensor_id;sensor_type;location;lat;lon;timestamp;temperature;humidity
18384;DHT22;9318;48.644;9.456;2023-07-29T00:00:39;16.80;99.90
18384;DHT22;9318;48.644;9.456;2023-07-29T00:03:06;16.80;99.90
18384;DHT22;9318;48.644;9.456;2023-07-29T00:05:32;16.70;99.90
18384;DHT22;9318;48.644;9.456;2023-07-29T00:07:59;16.70;99.90
18384;DHT22;9318;48.644;9.456;2023-07-29T00:10:26;16.70;99.90
18384;DHT22;9318;48.644;9.456;2023-07-29T00:12:54;16.70;99.90
18384;DHT22;9318;48.644;9.456;2023-07-29T00:15:21;16.70;99.90
18384;DHT22;9318;48.644;9.456;2023-07-29T00:17:48;16.70;99.90
18384;DHT22;9318;48.644;9.456;2023-07-29T00:20:15;16.70;99.90
18384;DHT22;9318;48.644;9.456;2023-07-29T00:22:42;16.60;99.90
18384;DHT22;9318;48.644;9.456;2023-07-29T00:25:09;16.60;99.90
18384;DHT22;9318;48.644;9.456;2023-07-29T00:27:35;16.60;99.90
18384;DHT22;9318;48.644;9.456;2023-07-29T00:30:05;16.60;99.90
18384;DHT22;9318;48.644;9.456;2023-07-29T00:32:31;16.50;99.90
18384;DHT22;9318;48.644;9.456;2023-07-29T00:34:58;16.50;99.90
18384;DHT22;9318;48.644;9.456;2023-07-29T00:37:27;16.50;99.90
18384;DHT22;9318;48.644;9.456;2023-07-29T00:39:54;16.50;99.90
18384;DHT22;9318;48.644;9.456;2023-07-29T00:42:20;16.50;99.90
18384;DHT22;9318;48.644;9.456;2023-07-29T00:44:47;16.50;99.90
18384;DHT22;9318;48.644;9.456;2023-07-29T00:47:16;16.60;99.90
18384;DHT22;9318;48.644;9.456;2023-07-29T00:49:43;16.60;99.90
18384;DHT22;9318;48.644;9.456;2023-07-29T00:52:10;16.60;99.90
18384;DHT22;9318;48.644;9.456;2023-07-29T00:54:37;16.60;99.90
18384;DHT22;9318;48.644;9.456;2023-07-29T00:57:05;16.60;99.90
18384;DHT22;9318;48.644;9.456;2023-07-29T00:59:32;16.70;99.90
18384;DHT22;9318;48.644;9.456;2023-07-29T01:01:59;16.70;99.90
18384;DHT22;9318;48.644;9.456;2023-07-29T01:04:27;16.60;99.90
18384;DHT22;9318;48.644;9.456;2023-07-29T01:07:07;16.60;99.90
18384;DHT22;9318;48.644;9.456;2023-07-29T01:09:43;16.70;99.90
18384;DHT22;9318;48.644;9.456;2023-07-29T01:12:18;16.60;99.90
18384;DHT22;9318;48.644;9.456;2023-07-29T01:14:51;16.70;99.90
18384;DHT22;9318;48.644;9.456;2023-07-29T01:17:23;16.70;99.90
18384;DHT22;9318;48.644;9.456;2023-07-29T01:20:00;16.70;99.90
18384;DHT22;9318;48.644;9.456;2023-07-29T01:22:29;16.80;99.90
18384;DHT22;9318;48.644;9.456;2023-07-29T01:24:57;16.80;99.90
18384;DHT22;9318;48.644;9.456;2023-07-29T01:27:24;16.80;99.90
18384;DHT22;9318;48.644;9.456;2023-07-29T01:29:52;16.80;99.90
18384;DHT22;9318;48.644;9.456;2023-07-29T01:32:23;16.80;99.90
18384;DHT22;9318;48.644;9.456;2023-07-29T01:34:58;16.70;99.90
18384;DHT22;9318;48.644;9.456;2023-07-29T01:37:31;16.70;99.90
18384;DHT22;9318;48.644;9.456;2023-07-29T01:40:01;16.70;99.90
18384;DHT22;9318;48.644;9.456;2023-07-29T01:42:28;16.70;99.90
18384;DHT22;9318;48.644;9.456;2023-07-29T01:44:56;16.70;99.90
18384;DHT22;9318;48.644;9.456;2023-07-29T01:47:23;16.70;99.90
18384;DHT22;9318;48.644;9.456;2023-07-29T01:49:49;16.70;99.90
18384;DHT22;9318;48.644;9.456;2023-07-29T01:52:16;16.70;99.90
18384;DHT22;9318;48.644;9.456;2023-07-29T01:54:43;16.70;99.90
18384;DHT22;9318;48.644;9.456;2023-07-29T01:57:11;16.70;99.90
18384;DHT22;9318;48.644;9.456;2023-07-29T01:59:38;16.70;99.90
18384;DHT22;9318;48.644;9.456;2023-07-29T02:02:06;16.70;99.90
18384;DHT22;9318;48.644;9.456;2023-07-29T02:04:33;16.70;99.90
18384;DHT22;9318;48.644;9.456;2023-07-29T02:06:59;16.70;99.90
18384;DHT22;9318;48.644;9.456;2023-07-29T02:09:26;16.80;99.90
18384;DHT22;9318;48.644;9.456;2023-07-29T02:11:53;16.80;99.90
18384;DHT22;9318;48.644;9.456;2023-07-29T02:14:21;16.80;99.90
18384;DHT22;9318;48.644;9.456;2023-07-29T02:16:48;16.80;99.90
18384;DHT22;9318;48.644;9.456;2023-07-29T02:19:15;16.80;99.90
18384;DHT22;9318;48.644;9.456;2023-07-29T02:21:42;16.80;99.90
18384;DHT22;9318;48.644;9.456;2023-07-29T02:24:08;16.80;99.90
18384;DHT22;9318;48.644;9.456;2023-07-29T02:26:35;16.80;99.90
18384;DHT22;9318;48.644;9.456;2023-07-29T02:29:02;16.80;99.90
18384;DHT22;9318;48.644;9.456;2023-07-29T02:31:30;16.70;99.90
18384;DHT22;9318;48.644;9.456;2023-07-29T02:33:56;16.70;99.90
18384;DHT22;9318;48.644;9.456;2023-07-29T02:36:23;16.70;99.90
18384;DHT22;9318;48.644;9.456;2023-07-29T02:38:50;16.60;99.90
18384;DHT22;9318;48.644;9.456;2023-07-29T02:41:17;16.70;99.90
18384;DHT22;9318;48.644;9.456;2023-07-29T02:43:47;16.60;99.90
18384;DHT22;9318;48.644;9.456;2023-07-29T02:46:14;16.60;99.90
18384;DHT22;9318;48.644;9.456;2023-07-29T02:48:42;16.60;99.90
18384;DHT22;9318;48.644;9.456;2023-07-29T02:51:09;16.60;99.90
18384;DHT22;9318;48.644;9.456;2023-07-29T02:53:36;16.60;99.90
18384;DHT22;9318;48.644;9.456;2023-07-29T02:56:03;16.60;99.90
18384;DHT22;9318;48.644;9.456;2023-07-29T02:58:30;16.60;99.90
18384;DHT22;9318;48.644;9.456;2023-07-29T03:01:00;16.60;99.90
18384;DHT22;9318;48.644;9.456;2023-07-29T03:03:27;16.50;99.90
18384;DHT22;9318;48.644;9.456;2023-07-29T03:05:59;16.50;99.90
18384;DHT22;9318;48.644;9.456;2023-07-29T03:08:26;16.50;99.90
18384;DHT22;9318;48.644;9.456;2023-07-29T03:10:53;16.50;99.90
18384;DHT22;9318;48.644;9.456;2023-07-29T03:13:20;16.50;99.90
18384;DHT22;9318;48.644;9.456;2023-07-29T03:15:47;16.50;99.90
18384;DHT22;9318;48.644;9.456;2023-07-29T03:18:14;16.50;99.90
18384;DHT22;9318;48.644;9.456;2023-07-29T03:20:41;16.50;99.90
18384;DHT22;9318;48.644;9.456;2023-07-29T03:23:09;16.50;99.90
18384;DHT22;9318;48.644;9.456;2023-07-29T03:25:36;16.50;99.90
18384;DHT22;9318;48.644;9.456;2023-07-29T03:28:03;16.40;99.90
18384;DHT22;9318;48.644;9.456;2023-07-29T03:30:30;16.40;99.90
18384;DHT22;9318;48.644;9.456;2023-07-29T03:32:56;16.30;99.90
18384;DHT22;9318;48.644;9.456;2023-07-29T03:35:23;16.30;99.90
18384;DHT22;9318;48.644;9.456;2023-07-29T03:37:50;16.20;99.90
18384;DHT22;9318;48.644;9.456;2023-07-29T03:40:18;16.20;99.90
18384;DHT22;9318;48.644;9.456;2023-07-29T03:42:45;16.20;99.90
18384;DHT22;9318;48.644;9.456;2023-07-29T03:45:12;16.20;99.90
18384;DHT22;9318;48.644;9.456;2023-07-29T03:47:38;16.20;99.90
18384;DHT22;9318;48.644;9.456;2023-07-29T03:50:06;16.20;99.90
18384;DHT22;9318;48.644;9.456;2023-07-29T03:52:32;16.30;99.90
18384;DHT22;9318;48.644;9.456;2023-07-29T03:54:59;16.20;99.90
18384;DHT22;9318;48.644;9.456;2023-07-29T03:57:27;16.20;99.90
18384;DHT22;9318;48.644;9.456;2023-07-29T03:59:55;16.30;99.90
18384;DHT22;9318;48.644;9.456;2023-07-29T04:02:22;16.30;99.90
18384;DHT22;9318;48.644;9.456;2023-07-29T04:04:48;16.30;99.90
18384;DHT22;9318;48.644;9.456;2023-07-29T04:07:15;16.30;99.90
18384;DHT22;9318;48.644;9.456;2023-07-29T04:09:42;16.30;99.90
18384;DHT22;9318;48.644;9.456;2023-07-29T04:12:09;16.40;99.90
18384;DHT22;9318;48.644;9.456;2023-07-29T04:14:37;16.40;99.90
18384;DHT22;9318;48.644;9.456;2023-07-29T04:17:05;16.50;99.90
18384;DHT22;9318;48.644;9.456;2023-07-29T04:19:32;16.50;99.90
18384;DHT22;9318;48.644;9.456;2023-07-29T04:21:59;16.50;99.90
18384;DHT22;9318;48.644;9.456;2023-07-29T04:24:26;16.50;99.90
18384;DHT22;9318;48.644;9.456;2023-07-29T04:26:52;16.50;99.90
18384;DHT22;9318;48.644;9.456;2023-07-29T04:29:19;16.50;99.90
18384;DHT22;9318;48.644;9.456;2023-07-29T04:31:47;16.50;99.90
18384;DHT22;9318;48.644;9.456;2023-07-29T04:34:14;16.50;99.90
18384;DHT22;9318;48.644;9.456;2023-07-29T04:36:40;16.50;99.90
18384;DHT22;9318;48.644;9.456;2023-07-29T04:39:07;16.50;99.90
18384;DHT22;9318;48.644;9.456;2023-07-29T04:41:34;16.60;99.90
18384;DHT22;9318;48.644;9.456;2023-07-29T04:44:01;16.60;99.90
18384;DHT22;9318;48.644;9.456;2023-07-29T04:46:28;16.60;99.90
18384;DHT22;9318;48.644;9.456;2023-07-29T04:48:56;16.70;99.90
18384;DHT22;9318;48.644;9.456;2023-07-29T04:51:24;16.70;99.90
18384;DHT22;9318;48.644;9.456;2023-07-29T04:53:51;16.70;99.90
18384;DHT22;9318;48.644;9.456;2023-07-29T04:56:17;16.80;99.90
18384;DHT22;9318;48.644;9.456;2023-07-29T04:58:44;16.80;99.90
18384;DHT22;9318;48.644;9.456;2023-07-29T05:01:11;16.80;99.90
18384;DHT22;9318;48.644;9.456;2023-07-29T05:03:38;16.80;99.90
18384;DHT22;9318;48.644;9.456;2023-07-29T05:06:06;16.90;99.90
18384;DHT22;9318;48.644;9.456;2023-07-29T05:08:33;16.90;99.90
18384;DHT22;9318;48.644;9.456;2023-07-29T05:11:00;16.90;99.90
18384;DHT22;9318;48.644;9.456;2023-07-29T05:13:27;16.90;99.90
18384;DHT22;9318;48.644;9.456;2023-07-29T05:15:54;16.90;99.90
18384;DHT22;9318;48.644;9.456;2023-07-29T05:18:21;17.00;99.90
18384;DHT22;9318;48.644;9.456;2023-07-29T05:20:49;17.00;99.90
18384;DHT22;9318;48.644;9.456;2023-07-29T05:23:17;17.00;99.90
18384;DHT22;9318;48.644;9.456;2023-07-29T05:25:43;17.00;99.90
18384;DHT22;9318;48.644;9.456;2023-07-29T05:28:10;17.00;99.90
18384;DHT22;9318;48.644;9.456;2023-07-29T05:30:37;17.00;99.90
18384;DHT22;9318;48.644;9.456;2023-07-29T05:33:05;17.10;99.90
18384;DHT22;9318;48.644;9.456;2023-07-29T05:35:33;17.10;99.90
18384;DHT22;9318;48.644;9.456;2023-07-29T05:38:00;17.20;99.90
18384;DHT22;9318;48.644;9.456;2023-07-29T05:40:28;17.20;99.90
18384;DHT22;9318;48.644;9.456;2023-07-29T05:42:54;17.20;99.90
18384;DHT22;9318;48.644;9.456;2023-07-29T05:45:21;17.20;99.90
18384;DHT22;9318;48.644;9.456;2023-07-29T05:47:48;17.20;99.90
18384;DHT22;9318;48.644;9.456;2023-07-29T05:50:15;17.10;99.90
18384;DHT22;9318;48.644;9.456;2023-07-29T05:52:41;17.10;99.90
18384;DHT22;9318;48.644;9.456;2023-07-29T05:55:09;17.20;99.90
18384;DHT22;9318;48.644;9.456;2023-07-29T05:57:37;17.10;99.90
18384;DHT22;9318;48.644;9.456;2023-07-29T06:00:05;17.20;99.90
18384;DHT22;9318;48.644;9.456;2023-07-29T06:02:32;17.30;99.90
18384;DHT22;9318;48.644;9.456;2023-07-29T06:04:58;17.50;99.90
18384;DHT22;9318;48.644;9.456;2023-07-29T06:07:26;17.70;99.90
18384;DHT22;9318;48.644;9.456;2023-07-29T06:09:55;17.90;99.90
18384;DHT22;9318;48.644;9.456;2023-07-29T06:12:23;18.20;99.90
18384;DHT22;9318;48.644;9.456;2023-07-29T06:14:51;18.90;99.90
18384;DHT22;9318;48.644;9.456;2023-07-29T06:17:17;19.40;99.90
18384;DHT22;9318;48.644;9.456;2023-07-29T06:19:44;19.70;99.90
18384;DHT22;9318;48.644;9.456;2023-07-29T06:22:11;20.10;99.90
18384;DHT22;9318;48.644;9.456;2023-07-29T06:24:38;20.60;99.90
18384;DHT22;9318;48.644;9.456;2023-07-29T06:27:05;21.40;99.90
18384;DHT22;9318;48.644;9.456;2023-07-29T06:29:31;22.10;99.90
18384;DHT22;9318;48.644;9.456;2023-07-29T06:32:00;22.40;99.90
18384;DHT22;9318;48.644;9.456;2023-07-29T06:34:27;22.50;99.90
18384;DHT22;9318;48.644;9.456;2023-07-29T06:36:53;22.60;99.90
18384;DHT22;9318;48.644;9.456;2023-07-29T06:39:20;22.40;99.90
18384;DHT22;9318;48.644;9.456;2023-07-29T06:41:47;22.10;99.90
18384;DHT22;9318;48.644;9.456;2023-07-29T06:44:13;21.80;99.90
18384;DHT22;9318;48.644;9.456;2023-07-29T06:46:40;21.60;99.90
18384;DHT22;9318;48.644;9.456;2023-07-29T06:49:08;21.50;99.90
18384;DHT22;9318;48.644;9.456;2023-07-29T06:51:35;21.50;99.90
18384;DHT22;9318;48.644;9.456;2023-07-29T06:54:02;21.60;99.90
18384;DHT22;9318;48.644;9.456;2023-07-29T06:56:29;21.70;99.90
18384;DHT22;9318;48.644;9.456;2023-07-29T06:58:55;21.60;99.90
18384;DHT22;9318;48.644;9.456;2023-07-29T07:01:22;21.50;99.90
18384;DHT22;9318;48.644;9.456;2023-07-29T07:03:49;21.40;99.90
18384;DHT22;9318;48.644;9.456;2023-07-29T07:06:17;21.20;99.90
18384;DHT22;9318;48.644;9.456;2023-07-29T07:08:43;21.00;99.90
18384;DHT22;9318;48.644;9.456;2023-07-29T07:11:10;20.80;99.90
18384;DHT22;9318;48.644;9.456;2023-07-29T07:13:37;20.60;99.90
18384;DHT22;9318;48.644;9.456;2023-07-29T07:16:04;20.40;99.90
18384;DHT22;9318;48.644;9.456;2023-07-29T07:18:30;20.20;99.90
18384;DHT22;9318;48.644;9.456;2023-07-29T07:20:57;20.10;99.90
18384;DHT22;9318;48.644;9.456;2023-07-29T07:23:25;19.90;99.90
18384;DHT22;9318;48.644;9.456;2023-07-29T07:25:52;19.80;99.90
18384;DHT22;9318;48.644;9.456;2023-07-29T07:28:19;19.70;99.90
18384;DHT22;9318;48.644;9.456;2023-07-29T07:30:45;19.50;99.90
18384;DHT22;9318;48.644;9.456;2023-07-29T07:33:12;19.40;99.90
18384;DHT22;9318;48.644;9.456;2023-07-29T07:35:39;19.30;99.90
18384;DHT22;9318;48.644;9.456;2023-07-29T07:38:07;19.20;99.90
18384;DHT22;9318;48.644;9.456;2023-07-29T07:40:36;19.20;99.90
18384;DHT22;9318;48.644;9.456;2023-07-29T07:43:03;19.20;99.90
18384;DHT22;9318;48.644;9.456;2023-07-29T07:45:32;19.20;99.90
18384;DHT22;9318;48.644;9.456;2023-07-29T07:47:58;19.10;99.90
18384;DHT22;9318;48.644;9.456;2023-07-29T07:50:25;19.20;99.90
18384;DHT22;9318;48.644;9.456;2023-07-29T07:52:55;19.10;99.90
18384;DHT22;9318;48.644;9.456;2023-07-29T07:55:21;19.20;99.90
18384;DHT22;9318;48.644;9.456;2023-07-29T07:57:49;19.40;99.90
18384;DHT22;9318;48.644;9.456;2023-07-29T08:00:16;19.50;99.90
18384;DHT22;9318;48.644;9.456;2023-07-29T08:02:44;19.60;99.90
18384;DHT22;9318;48.644;9.456;2023-07-29T08:05:11;19.80;99.90
18384;DHT22;9318;48.644;9.456;2023-07-29T08:07:38;19.80;99.90
18384;DHT22;9318;48.644;9.456;2023-07-29T08:10:06;19.90;99.90
18384;DHT22;9318;48.644;9.456;2023-07-29T08:12:33;19.90;99.90
18384;DHT22;9318;48.644;9.456;2023-07-29T08:15:01;19.90;99.90
18384;DHT22;9318;48.644;9.456;2023-07-29T08:17:28;19.90;99.90
18384;DHT22;9318;48.644;9.456;2023-07-29T08:19:55;19.90;99.90
18384;DHT22;9318;48.644;9.456;2023-07-29T08:22:21;20.00;99.90
18384;DHT22;9318;48.644;9.456;2023-07-29T08:24:48;20.00;99.90
18384;DHT22;9318;48.644;9.456;2023-07-29T08:27:15;20.00;99.90
18384;DHT22;9318;48.644;9.456;2023-07-29T08:29:42;19.90;99.90
18384;DHT22;9318;48.644;9.456;2023-07-29T08:32:10;20.00;99.90
18384;DHT22;9318;48.644;9.456;2023-07-29T08:34:36;20.40;99.90
18384;DHT22;9318;48.644;9.456;2023-07-29T08:37:03;21.30;99.90
18384;DHT22;9318;48.644;9.456;2023-07-29T08:39:30;21.90;99.90
18384;DHT22;9318;48.644;9.456;2023-07-29T08:42:01;22.20;99.90
18384;DHT22;9318;48.644;9.456;2023-07-29T08:44:33;22.30;99.90
18384;DHT22;9318;48.644;9.456;2023-07-29T08:47:01;22.50;99.90
18384;DHT22;9318;48.644;9.456;2023-07-29T08:49:29;22.80;99.90
18384;DHT22;9318;48.644;9.456;2023-07-29T08:51:57;23.00;99.90
18384;DHT22;9318;48.644;9.456;2023-07-29T08:54:25;23.30;99.90
18384;DHT22;9318;48.644;9.456;2023-07-29T08:56:52;23.80;99.90
18384;DHT22;9318;48.644;9.456;2023-07-29T08:59:19;24.50;99.90
18384;DHT22;9318;48.644;9.456;2023-07-29T09:01:47;25.30;99.90
18384;DHT22;9318;48.644;9.456;2023-07-29T09:04:13;25.70;99.90
18384;DHT22;9318;48.644;9.456;2023-07-29T09:06:43;25.70;99.90
18384;DHT22;9318;48.644;9.456;2023-07-29T09:09:11;25.30;99.90
18384;DHT22;9318;48.644;9.456;2023-07-29T09:11:37;25.00;99.90
18384;DHT22;9318;48.644;9.456;2023-07-29T09:14:04;24.60;99.90
18384;DHT22;9318;48.644;9.456;2023-07-29T09:16:31;25.00;99.90
18384;DHT22;9318;48.644;9.456;2023-07-29T09:19:01;25.90;99.90
18384;DHT22;9318;48.644;9.456;2023-07-29T09:21:29;27.10;99.90
18384;DHT22;9318;48.644;9.456;2023-07-29T09:24:02;27.60;99.90
18384;DHT22;9318;48.644;9.456;2023-07-29T09:26:29;28.00;99.90
18384;DHT22;9318;48.644;9.456;2023-07-29T09:28:58;27.90;99.90
18384;DHT22;9318;48.644;9.456;2023-07-29T09:31:26;27.90;99.90
18384;DHT22;9318;48.644;9.456;2023-07-29T09:33:55;27.10;99.90
18384;DHT22;9318;48.644;9.456;2023-07-29T09:36:23;26.60;99.90
18384;DHT22;9318;48.644;9.456;2023-07-29T09:38:53;26.00;99.90
18384;DHT22;9318;48.644;9.456;2023-07-29T09:41:23;25.60;99.90
18384;DHT22;9318;48.644;9.456;2023-07-29T09:43:55;25.70;99.90
18384;DHT22;9318;48.644;9.456;2023-07-29T09:46:24;26.80;99.90
18384;DHT22;9318;48.644;9.456;2023-07-29T09:48:53;27.30;99.90
18384;DHT22;9318;48.644;9.456;2023-07-29T09:51:20;27.20;99.90
18384;DHT22;9318;48.644;9.456;2023-07-29T09:53:47;27.30;99.90
18384;DHT22;9318;48.644;9.456;2023-07-29T09:56:15;27.70;99.90
18384;DHT22;9318;48.644;9.456;2023-07-29T09:58:44;27.50;99.90
18384;DHT22;9318;48.644;9.456;2023-07-29T10:01:12;27.70;99.90
18384;DHT22;9318;48.644;9.456;2023-07-29T10:03:39;27.40;99.90
18384;DHT22;9318;48.644;9.456;2023-07-29T10:06:07;27.40;99.90
18384;DHT22;9318;48.644;9.456;2023-07-29T10:08:34;27.20;99.90
18384;DHT22;9318;48.644;9.456;2023-07-29T10:11:05;26.80;99.90
18384;DHT22;9318;48.644;9.456;2023-07-29T10:13:34;27.10;99.90
18384;DHT22;9318;48.644;9.456;2023-07-29T10:16:02;27.30;99.90
18384;DHT22;9318;48.644;9.456;2023-07-29T10:18:31;27.30;99.90
18384;DHT22;9318;48.644;9.456;2023-07-29T10:20:59;27.20;99.90
18384;DHT22;9318;48.644;9.456;2023-07-29T10:23:28;27.20;99.90
18384;DHT22;9318;48.644;9.456;2023-07-29T10:26:02;27.20;99.90
18384;DHT22;9318;48.644;9.456;2023-07-29T10:28:30;27.10;99.90
18384;DHT22;9318;48.644;9.456;2023-07-29T10:30:57;27.10;99.90
18384;DHT22;9318;48.644;9.456;2023-07-29T10:33:25;27.10;99.90
18384;DHT22;9318;48.644;9.456;2023-07-29T10:35:53;26.80;99.90
18384;DHT22;9318;48.644;9.456;2023-07-29T10:38:21;26.30;99.90
18384;DHT22;9318;48.644;9.456;2023-07-29T10:40:51;25.70;99.90
18384;DHT22;9318;48.644;9.456;2023-07-29T10:43:25;25.30;99.90
18384;DHT22;9318;48.644;9.456;2023-07-29T10:45:52;24.80;99.90
18384;DHT22;9318;48.644;9.456;2023-07-29T10:48:42;24.50;99.90
18384;DHT22;9318;48.644;9.456;2023-07-29T10:51:23;24.20;99.90
18384;DHT22;9318;48.644;9.456;2023-07-29T10:53:52;24.00;99.90
18384;DHT22;9318;48.644;9.456;2023-07-29T10:56:26;23.50;99.90
18384;DHT22;9318;48.644;9.456;2023-07-29T10:58:55;23.20;99.90
18384;DHT22;9318;48.644;9.456;2023-07-29T11:01:27;23.10;99.90
18384;DHT22;9318;48.644;9.456;2023-07-29T11:04:27;23.20;99.90
18384;DHT22;9318;48.644;9.456;2023-07-29T11:07:23;23.50;99.90
18384;DHT22;9318;48.644;9.456;2023-07-29T11:09:57;23.90;99.90
18384;DHT22;9318;48.644;9.456;2023-07-29T11:12:41;24.30;99.90
18384;DHT22;9318;48.644;9.456;2023-07-29T11:15:17;24.70;99.90
18384;DHT22;9318;48.644;9.456;2023-07-29T11:17:45;25.10;99.90
18384;DHT22;9318;48.644;9.456;2023-07-29T11:20:15;25.50;99.90
18384;DHT22;9318;48.644;9.456;2023-07-29T11:22:42;25.80;99.90
18384;DHT22;9318;48.644;9.456;2023-07-29T11:25:10;26.10;99.90
18384;DHT22;9318;48.644;9.456;2023-07-29T11:27:37;26.50;99.90
18384;DHT22;9318;48.644;9.456;2023-07-29T11:30:06;26.80;99.90
18384;DHT22;9318;48.644;9.456;2023-07-29T11:32:34;27.00;99.90
18384;DHT22;9318;48.644;9.456;2023-07-29T11:35:02;27.00;99.90
18384;DHT22;9318;48.644;9.456;2023-07-29T11:37:30;27.00;99.90
18384;DHT22;9318;48.644;9.456;2023-07-29T11:39:57;27.00;99.90
18384;DHT22;9318;48.644;9.456;2023-07-29T11:42:24;27.10;99.90
18384;DHT22;9318;48.644;9.456;2023-07-29T11:44:52;27.30;99.90
18384;DHT22;9318;48.644;9.456;2023-07-29T11:47:19;27.40;99.90
18384;DHT22;9318;48.644;9.456;2023-07-29T11:49:45;27.70;99.90
18384;DHT22;9318;48.644;9.456;2023-07-29T11:52:12;27.70;99.90
18384;DHT22;9318;48.644;9.456;2023-07-29T11:54:40;27.80;99.90
18384;DHT22;9318;48.644;9.456;2023-07-29T11:57:07;27.50;99.90
18384;DHT22;9318;48.644;9.456;2023-07-29T11:59:36;27.50;99.90
18384;DHT22;9318;48.644;9.456;2023-07-29T12:02:06;27.60;99.90
18384;DHT22;9318;48.644;9.456;2023-07-29T12:04:34;27.30;99.90
18384;DHT22;9318;48.644;9.456;2023-07-29T12:07:01;27.30;99.90
18384;DHT22;9318;48.644;9.456;2023-07-29T12:09:28;27.20;99.90
18384;DHT22;9318;48.644;9.456;2023-07-29T12:11:57;27.30;99.90
18384;DHT22;9318;48.644;9.456;2023-07-29T12:14:26;27.30;99.90
18384;DHT22;9318;48.644;9.456;2023-07-29T12:16:53;27.40;99.90
18384;DHT22;9318;48.644;9.456;2023-07-29T12:19:19;27.60;99.90
18384;DHT22;9318;48.644;9.456;2023-07-29T12:21:47;27.50;99.90
18384;DHT22;9318;48.644;9.456;2023-07-29T12:24:14;27.70;99.90
18384;DHT22;9318;48.644;9.456;2023-07-29T12:26:41;27.70;99.90
18384;DHT22;9318;48.644;9.456;2023-07-29T12:29:13;27.80;99.90
18384;DHT22;9318;48.644;9.456;2023-07-29T12:31:41;27.80;99.90
18384;DHT22;9318;48.644;9.456;2023-07-29T12:34:08;27.90;99.90
18384;DHT22;9318;48.644;9.456;2023-07-29T12:36:44;27.80;99.90
18384;DHT22;9318;48.644;9.456;2023-07-29T12:39:18;27.80;99.90
18384;DHT22;9318;48.644;9.456;2023-07-29T12:41:45;28.00;99.90
18384;DHT22;9318;48.644;9.456;2023-07-29T12:44:13;28.10;99.90
18384;DHT22;9318;48.644;9.456;2023-07-29T12:46:40;28.20;99.90
18384;DHT22;9318;48.644;9.456;2023-07-29T12:49:06;28.20;99.90
18384;DHT22;9318;48.644;9.456;2023-07-29T12:51:33;28.30;99.90
18384;DHT22;9318;48.644;9.456;2023-07-29T12:54:01;28.40;99.90
18384;DHT22;9318;48.644;9.456;2023-07-29T12:56:28;28.60;99.90
18384;DHT22;9318;48.644;9.456;2023-07-29T12:58:56;28.70;99.90
18384;DHT22;9318;48.644;9.456;2023-07-29T13:01:25;28.80;99.90
18384;DHT22;9318;48.644;9.456;2023-07-29T13:03:52;28.70;99.90
18384;DHT22;9318;48.644;9.456;2023-07-29T13:06:19;28.40;99.90
18384;DHT22;9318;48.644;9.456;2023-07-29T13:08:47;28.10;99.90
18384;DHT22;9318;48.644;9.456;2023-07-29T13:11:14;27.90;99.90
18384;DHT22;9318;48.644;9.456;2023-07-29T13:13:41;27.80;99.90
18384;DHT22;9318;48.644;9.456;2023-07-29T13:16:08;27.90;99.90
18384;DHT22;9318;48.644;9.456;2023-07-29T13:18:36;28.00;99.90
18384;DHT22;9318;48.644;9.456;2023-07-29T13:21:03;28.10;99.90
18384;DHT22;9318;48.644;9.456;2023-07-29T13:23:30;28.30;99.90
18384;DHT22;9318;48.644;9.456;2023-07-29T13:25:57;28.50;99.90
18384;DHT22;9318;48.644;9.456;2023-07-29T13:28:23;28.60;99.90
18384;DHT22;9318;48.644;9.456;2023-07-29T13:30:50;28.80;99.90
18384;DHT22;9318;48.644;9.456;2023-07-29T13:33:17;28.80;99.90
18384;DHT22;9318;48.644;9.456;2023-07-29T13:35:45;28.80;99.90
18384;DHT22;9318;48.644;9.456;2023-07-29T13:38:12;28.60;99.90
18384;DHT22;9318;48.644;9.456;2023-07-29T13:40:38;28.50;99.90
18384;DHT22;9318;48.644;9.456;2023-07-29T13:43:05;28.40;99.90
18384;DHT22;9318;48.644;9.456;2023-07-29T13:45:34;28.40;99.90
18384;DHT22;9318;48.644;9.456;2023-07-29T13:48:01;28.20;99.90
18384;DHT22;9318;48.644;9.456;2023-07-29T13:50:27;28.00;99.90
18384;DHT22;9318;48.644;9.456;2023-07-29T13:52:55;27.80;99.90
18384;DHT22;9318;48.644;9.456;2023-07-29T13:55:22;27.60;99.90
18384;DHT22;9318;48.644;9.456;2023-07-29T13:57:49;27.60;99.90
18384;DHT22;9318;48.644;9.456;2023-07-29T14:00:16;27.40;99.90
18384;DHT22;9318;48.644;9.456;2023-07-29T14:02:42;27.40;99.90
18384;DHT22;9318;48.644;9.456;2023-07-29T14:05:09;27.50;99.90
18384;DHT22;9318;48.644;9.456;2023-07-29T14:07:37;27.60;99.90
18384;DHT22;9318;48.644;9.456;2023-07-29T14:10:06;27.60;99.90
18384;DHT22;9318;48.644;9.456;2023-07-29T14:12:33;27.60;99.90
18384;DHT22;9318;48.644;9.456;2023-07-29T14:15:00;27.60;99.90
18384;DHT22;9318;48.644;9.456;2023-07-29T14:17:27;27.60;99.90
18384;DHT22;9318;48.644;9.456;2023-07-29T14:19:54;27.60;99.90
18384;DHT22;9318;48.644;9.456;2023-07-29T14:22:20;27.70;99.90
18384;DHT22;9318;48.644;9.456;2023-07-29T14:24:47;27.60;99.90
18384;DHT22;9318;48.644;9.456;2023-07-29T14:27:15;27.60;99.90
18384;DHT22;9318;48.644;9.456;2023-07-29T14:29:42;27.60;99.90
18384;DHT22;9318;48.644;9.456;2023-07-29T14:32:09;27.40;99.90
18384;DHT22;9318;48.644;9.456;2023-07-29T14:34:36;27.30;99.90
18384;DHT22;9318;48.644;9.456;2023-07-29T14:37:03;27.30;99.90
18384;DHT22;9318;48.644;9.456;2023-07-29T14:39:30;27.40;99.90
18384;DHT22;9318;48.644;9.456;2023-07-29T14:41:57;27.40;99.90
18384;DHT22;9318;48.644;9.456;2023-07-29T14:44:25;27.20;99.90
18384;DHT22;9318;48.644;9.456;2023-07-29T14:46:51;27.10;99.90
18384;DHT22;9318;48.644;9.456;2023-07-29T14:49:19;27.00;99.90
18384;DHT22;9318;48.644;9.456;2023-07-29T14:51:45;26.90;99.90
18384;DHT22;9318;48.644;9.456;2023-07-29T14:54:12;26.70;99.90
18384;DHT22;9318;48.644;9.456;2023-07-29T14:56:39;26.60;99.90
18384;DHT22;9318;48.644;9.456;2023-07-29T14:59:05;26.40;99.90
18384;DHT22;9318;48.644;9.456;2023-07-29T15:01:34;26.30;99.90
18384;DHT22;9318;48.644;9.456;2023-07-29T15:04:00;26.20;99.90
18384;DHT22;9318;48.644;9.456;2023-07-29T15:06:27;26.20;99.90
18384;DHT22;9318;48.644;9.456;2023-07-29T15:08:54;26.10;99.90
18384;DHT22;9318;48.644;9.456;2023-07-29T15:11:20;26.00;99.90
18384;DHT22;9318;48.644;9.456;2023-07-29T15:13:47;26.00;99.90
18384;DHT22;9318;48.644;9.456;2023-07-29T15:16:14;26.00;99.90
18384;DHT22;9318;48.644;9.456;2023-07-29T15:18:42;26.00;99.90
18384;DHT22;9318;48.644;9.456;2023-07-29T15:21:09;25.90;99.90
18384;DHT22;9318;48.644;9.456;2023-07-29T15:23:35;25.80;99.90
18384;DHT22;9318;48.644;9.456;2023-07-29T15:26:02;25.70;99.90
18384;DHT22;9318;48.644;9.456;2023-07-29T15:28:29;25.80;99.90
18384;DHT22;9318;48.644;9.456;2023-07-29T15:30:55;25.90;99.90
18384;DHT22;9318;48.644;9.456;2023-07-29T15:33:22;25.90;99.90
18384;DHT22;9318;48.644;9.456;2023-07-29T15:35:50;26.00;99.90
18384;DHT22;9318;48.644;9.456;2023-07-29T15:38:17;26.00;99.90
18384;DHT22;9318;48.644;9.456;2023-07-29T15:40:44;26.10;99.90
18384;DHT22;9318;48.644;9.456;2023-07-29T15:43:14;26.00;99.90
18384;DHT22;9318;48.644;9.456;2023-07-29T15:45:41;26.10;99.90
18384;DHT22;9318;48.644;9.456;2023-07-29T15:48:08;26.10;99.90